createdAt,value
2023-03-07T00:01:43.429Z,-0.42
2023-03-07T00:06:36.274Z,-0.47
2023-03-07T00:11:30.218Z,-0.55
2023-03-07T00:16:25.312Z,-0.64
2023-03-07T00:21:20.629Z,-0.79
2023-03-07T00:26:14.915Z,-0.93
2023-03-07T00:31:10.718Z,-1.05
2023-03-07T00:36:06.381Z,-1.18
2023-03-07T00:41:00.859Z,-1.29
2023-03-07T00:45:53.873Z,-1.34
2023-03-07T00:50:47.121Z,-1.30
2023-03-07T00:55:40.153Z,-1.21
2023-03-07T01:00:34.994Z,-1.17
2023-03-07T01:05:27.649Z,-1.12
2023-03-07T01:10:21.171Z,-1.10
2023-03-07T01:15:13.820Z,-1.08
2023-03-07T01:20:07.678Z,-1.07
2023-03-07T01:25:01.259Z,-1.09
2023-03-07T01:29:54.159Z,-1.11
2023-03-07T01:34:46.879Z,-1.14
2023-03-07T01:39:40.082Z,-1.20
2023-03-07T01:45:03.896Z,-1.29
2023-03-07T01:50:17.819Z,-1.40
2023-03-07T01:55:29.527Z,-1.52
2023-03-07T02:00:29.920Z,-1.62
2023-03-07T02:05:38.165Z,-1.66
2023-03-07T02:10:32.909Z,-1.73
2023-03-07T02:15:26.528Z,-1.86
2023-03-07T02:20:35.392Z,-2.04
2023-03-07T02:26:02.383Z,-2.26
2023-03-07T02:31:20.748Z,-2.44
2023-03-07T02:42:09.993Z,-2.74
2023-03-07T02:47:13.554Z,-2.88
2023-03-07T02:52:06.969Z,-2.99
2023-03-07T02:57:24.958Z,-3.09
2023-03-07T03:02:59.759Z,-3.17
2023-03-07T03:08:54.187Z,-3.35
2023-03-07T03:20:20.292Z,-3.66
2023-03-07T03:25:47.484Z,-3.73
2023-03-07T03:30:46.089Z,-3.85
2023-03-07T03:35:40.772Z,-3.98
2023-03-07T03:41:41.818Z,-4.09
2023-03-07T03:47:52.985Z,-4.25
2023-03-07T03:54:03.637Z,-4.40
2023-03-07T03:59:29.794Z,-4.58
2023-03-07T04:54:10.925Z,-5.33
2023-03-07T05:06:13.412Z,-5.40
2023-03-07T05:11:53.638Z,-5.24
2023-03-07T05:17:53.958Z,-5.10
2023-03-07T05:41:20.761Z,-4.40
2023-03-07T05:46:13.533Z,-4.27
2023-03-07T05:51:09.876Z,-4.16
2023-03-07T05:56:02.814Z,-4.07
2023-03-07T06:00:56.099Z,-3.95
2023-03-07T06:05:52.210Z,-3.78
2023-03-07T06:10:45.143Z,-3.63
2023-03-07T06:15:37.883Z,-3.55
2023-03-07T06:20:32.463Z,-3.43
2023-03-07T06:25:25.767Z,-3.40
2023-03-07T06:30:18.721Z,-3.33
2023-03-07T06:35:11.604Z,-3.20
2023-03-07T06:40:06.465Z,-3.10
2023-03-07T06:45:00.664Z,-3.02
2023-03-07T06:49:55.764Z,-2.85
2023-03-07T06:54:48.874Z,-2.68
2023-03-07T06:59:42.422Z,-2.45
2023-03-07T07:04:36.119Z,-2.15
2023-03-07T07:09:29.965Z,-1.90
2023-03-07T07:14:23.569Z,-1.68
2023-03-07T07:19:16.797Z,-1.48
2023-03-07T07:24:13.609Z,-1.34
2023-03-07T07:29:06.633Z,-1.12
2023-03-07T07:34:00.188Z,-0.80
2023-03-07T07:38:53.992Z,-0.20
2023-03-07T07:43:50.091Z,0.35
2023-03-07T07:48:48.643Z,0.60
2023-03-07T07:53:41.536Z,0.92
2023-03-07T07:58:34.328Z,1.01
2023-03-07T08:03:28.077Z,1.28
2023-03-07T08:08:21.333Z,2.65
2023-03-07T08:13:15.424Z,3.60
2023-03-07T08:18:08.296Z,3.73
2023-03-07T08:23:01.006Z,3.79
2023-03-07T08:27:55.287Z,4.01
2023-03-07T08:32:56.635Z,4.29
2023-03-07T08:37:50.719Z,4.34
2023-03-07T08:42:46.835Z,5.15
2023-03-07T08:47:39.640Z,5.14
2023-03-07T08:52:33.324Z,4.73
2023-03-07T08:57:26.002Z,4.20
2023-03-07T09:02:18.684Z,4.17
2023-03-07T09:07:11.322Z,4.81
2023-03-07T09:12:04.098Z,5.46
2023-03-07T09:16:57.265Z,5.34
2023-03-07T09:21:50.086Z,5.35
2023-03-07T09:26:45.627Z,5.45
2023-03-07T09:31:38.385Z,5.86
2023-03-07T09:36:31.153Z,6.05
2023-03-07T09:42:08.670Z,5.90
2023-03-07T09:47:14.482Z,5.50
2023-03-07T09:52:19.223Z,4.83
2023-03-07T09:57:55.319Z,4.44
2023-03-07T10:03:16.469Z,4.27
2023-03-07T10:08:16.566Z,4.56
2023-03-07T10:13:29.490Z,5.28
2023-03-07T10:18:26.109Z,5.41
2023-03-07T10:23:31.107Z,5.03
2023-03-07T10:28:28.285Z,5.18
2023-03-07T10:33:49.418Z,5.28
2023-03-07T10:38:50.846Z,4.92
2023-03-07T10:43:45.485Z,4.39
2023-03-07T10:48:42.643Z,3.81
2023-03-07T10:53:41.682Z,3.48
2023-03-07T10:58:36.753Z,3.39
2023-03-07T11:03:29.321Z,3.87
2023-03-07T11:08:33.515Z,5.17
2023-03-07T11:13:26.445Z,5.83
2023-03-07T11:18:31.419Z,6.45
2023-03-07T11:23:31.652Z,6.84
2023-03-07T11:29:27.391Z,6.64
2023-03-07T11:34:37.433Z,6.79
2023-03-07T11:39:38.650Z,7.02
2023-03-07T11:44:54.325Z,8.43
2023-03-07T11:50:06.675Z,9.96
2023-03-07T11:55:24.275Z,10.94
2023-03-07T12:00:29.281Z,11.65
2023-03-07T12:05:27.941Z,11.67
2023-03-07T12:10:47.439Z,11.42
2023-03-07T12:15:55.472Z,10.43
2023-03-07T12:21:07.045Z,9.52
2023-03-07T12:26:05.277Z,9.09
2023-03-07T12:31:16.090Z,8.91
2023-03-07T12:36:13.941Z,8.33
2023-03-07T12:41:20.045Z,8.13
2023-03-07T12:46:55.878Z,8.15
2023-03-07T12:51:55.516Z,7.72
2023-03-07T12:57:36.260Z,7.53
2023-03-07T13:03:08.522Z,7.27
2023-03-07T13:08:03.021Z,7.21
2023-03-07T13:12:55.681Z,7.10
2023-03-07T13:17:48.613Z,7.06
2023-03-07T13:22:41.208Z,7.11
2023-03-07T13:27:42.936Z,7.11
2023-03-07T13:32:54.469Z,6.97
2023-03-07T13:38:09.543Z,6.69
2023-03-07T13:43:25.635Z,6.42
2023-03-07T13:48:29.979Z,6.16
2023-03-07T13:53:54.806Z,5.91
2023-03-07T13:58:48.582Z,5.68
2023-03-07T14:04:17.867Z,5.55
2023-03-07T14:09:21.327Z,5.47
2023-03-07T14:14:45.690Z,5.37
2023-03-07T14:20:00.129Z,5.25
2023-03-07T14:25:19.163Z,5.14
2023-03-07T14:30:34.182Z,5.08
2023-03-07T14:35:44.101Z,5.03
2023-03-07T14:41:07.783Z,4.97
2023-03-07T14:46:19.784Z,4.92
2023-03-07T14:51:25.798Z,4.90
2023-03-07T14:56:29.189Z,4.91
2023-03-07T15:01:22.081Z,4.91
2023-03-07T15:06:18.048Z,4.89
2023-03-07T15:11:17.832Z,4.89
2023-03-07T15:16:16.997Z,4.87
2023-03-07T15:21:19.375Z,4.84
2023-03-07T15:26:21.286Z,4.79
2023-03-07T15:31:15.457Z,4.74
2023-03-07T15:36:11.529Z,4.67
2023-03-07T15:41:29.902Z,4.61
2023-03-07T15:46:31.720Z,4.54
2023-03-07T15:51:28.075Z,4.50
2023-03-07T15:56:34.509Z,4.44
2023-03-07T16:01:28.633Z,4.37
2023-03-07T16:06:42.140Z,4.32
2023-03-07T16:11:37.635Z,4.24
2023-03-07T16:16:32.403Z,4.12
2023-03-07T16:21:26.375Z,4.02
2023-03-07T16:26:22.945Z,3.94
2023-03-07T16:31:19.408Z,3.87
2023-03-07T16:36:14.071Z,3.79
2023-03-07T16:41:18.034Z,3.71
2023-03-07T16:46:19.303Z,3.63
2023-03-07T16:51:26.144Z,3.57
2023-03-07T16:56:35.856Z,3.50
2023-03-07T17:01:29.030Z,3.40
2023-03-07T17:06:30.473Z,3.32
2023-03-07T17:11:30.679Z,3.25
2023-03-07T17:16:23.655Z,3.23
2023-03-07T17:21:19.450Z,3.24
2023-03-07T17:26:23.461Z,3.24
2023-03-07T17:31:16.202Z,3.26
2023-03-07T17:36:12.831Z,3.26
2023-03-07T17:41:06.201Z,3.26
2023-03-07T17:45:58.904Z,3.26
2023-03-07T17:50:51.606Z,3.24
2023-03-07T17:55:44.268Z,3.23
2023-03-07T18:00:37.482Z,3.29
2023-03-07T18:05:30.147Z,3.33
2023-03-07T18:10:23.981Z,3.37
2023-03-07T18:15:19.407Z,3.39
2023-03-07T18:20:13.253Z,3.43
2023-03-07T18:25:18.252Z,3.45
2023-03-07T18:30:12.741Z,3.48
2023-03-07T18:35:08.196Z,3.54
2023-03-07T18:40:01.670Z,3.61
2023-03-07T18:45:08.357Z,3.64
2023-03-07T18:50:19.967Z,3.68
2023-03-07T18:55:24.538Z,3.71
2023-03-07T19:00:49.928Z,3.76
2023-03-07T19:06:17.091Z,3.81
2023-03-07T19:11:30.235Z,3.87
2023-03-07T19:17:02.628Z,3.93
2023-03-07T19:22:51.807Z,3.96
2023-03-07T19:28:13.088Z,4.00
2023-03-07T19:33:11.981Z,4.05
2023-03-07T19:38:11.017Z,4.10
2023-03-07T19:48:50.058Z,4.14
2023-03-07T19:53:49.485Z,4.15
2023-03-07T19:59:11.556Z,4.17
2023-03-07T20:04:18.973Z,4.20
2023-03-07T20:09:32.593Z,4.23
2023-03-07T20:14:53.635Z,4.24
2023-03-07T20:19:58.961Z,4.25
2023-03-07T20:24:57.862Z,4.22
2023-03-07T20:29:50.630Z,4.18
2023-03-07T20:34:43.936Z,4.15
2023-03-07T20:39:43.895Z,4.10
2023-03-07T20:44:36.789Z,4.05
2023-03-07T20:49:29.672Z,4.02
2023-03-07T20:54:25.149Z,3.99
2023-03-07T20:59:19.720Z,3.95
2023-03-07T21:04:15.841Z,3.92
2023-03-07T21:09:13.822Z,3.88
2023-03-07T21:14:07.276Z,3.84
2023-03-07T21:19:05.612Z,3.80
2023-03-07T21:23:58.735Z,3.77
2023-03-07T21:28:52.777Z,3.75
2023-03-07T21:33:48.411Z,3.72
2023-03-07T21:38:45.521Z,3.72
2023-03-07T21:43:38.468Z,3.71
2023-03-07T21:48:31.974Z,3.71
2023-03-07T21:53:28.084Z,3.73
2023-03-07T21:58:26.914Z,3.73
2023-03-07T22:03:22.965Z,3.76
2023-03-07T22:08:20.522Z,3.77
2023-03-07T22:13:13.316Z,3.78
2023-03-07T22:18:06.178Z,3.79
2023-03-07T22:22:58.939Z,3.80
2023-03-07T22:27:52.188Z,3.80
2023-03-07T22:32:47.757Z,3.81
2023-03-07T22:37:41.933Z,3.84
2023-03-07T22:42:35.588Z,3.85
2023-03-07T22:47:29.496Z,3.85
2023-03-07T22:52:24.711Z,3.84
2023-03-07T22:57:19.991Z,3.77
2023-03-07T23:02:13.171Z,3.66
2023-03-07T23:07:08.549Z,3.54
2023-03-07T23:12:05.547Z,3.43
2023-03-07T23:16:58.612Z,3.25
2023-03-07T23:21:56.496Z,2.96
2023-03-07T23:26:54.963Z,2.68
2023-03-07T23:31:48.024Z,2.46
2023-03-07T23:36:41.122Z,2.30
2023-03-07T23:41:34.090Z,2.17
2023-03-07T23:46:31.661Z,2.04
2023-03-07T23:51:24.713Z,1.96
2023-03-07T23:56:18.438Z,1.94
